sensor_id;sensor_type;location;lat;lon;timestamp;pressure;altitude;pressure_sealevel;temperature;humidity
65716;BME280;63484;52.054;8.518;2022-12-18T00:03:16;102049.03;;;-8.97;87.78
65716;BME280;63484;52.054;8.518;2022-12-18T00:08:17;102054.69;;;-9.04;87.49
65716;BME280;63484;52.054;8.518;2022-12-18T00:13:18;102054.56;;;-9.07;87.79
65716;BME280;63484;52.054;8.518;2022-12-18T00:18:18;102047.75;;;-9.08;88.27
65716;BME280;63484;52.054;8.518;2022-12-18T00:23:18;102041.91;;;-9.05;88.57
65716;BME280;63484;52.054;8.518;2022-12-18T00:28:19;102064.88;;;-9.04;88.33
65716;BME280;63484;52.054;8.518;2022-12-18T00:33:20;102063.69;;;-9.12;87.49
65716;BME280;63484;52.054;8.518;2022-12-18T00:38:21;102063.19;;;-9.24;87.11
65716;BME280;63484;52.054;8.518;2022-12-18T00:43:21;102063.81;;;-9.29;87.40
65716;BME280;63484;52.054;8.518;2022-12-18T00:48:22;102055.44;;;-9.27;87.90
65716;BME280;63484;52.054;8.518;2022-12-18T00:53:22;102056.31;;;-9.26;87.70
65716;BME280;63484;52.054;8.518;2022-12-18T00:58:22;102047.69;;;-9.30;88.04
65716;BME280;63484;52.054;8.518;2022-12-18T01:03:23;102047.13;;;-9.23;87.93
65716;BME280;63484;52.054;8.518;2022-12-18T01:08:24;102043.59;;;-9.26;87.49
65716;BME280;63484;52.054;8.518;2022-12-18T01:13:24;102046.94;;;-9.27;87.65
65716;BME280;63484;52.054;8.518;2022-12-18T01:18:24;102051.16;;;-9.28;87.73
65716;BME280;63484;52.054;8.518;2022-12-18T01:23:25;102047.72;;;-9.28;87.88
65716;BME280;63484;52.054;8.518;2022-12-18T01:28:26;102042.47;;;-9.33;87.49
65716;BME280;63484;52.054;8.518;2022-12-18T01:33:26;102047.50;;;-9.34;87.39
65716;BME280;63484;52.054;8.518;2022-12-18T01:38:28;102053.47;;;-9.34;87.65
65716;BME280;63484;52.054;8.518;2022-12-18T01:48:51;102065.13;;;-9.39;87.84
65716;BME280;63484;52.054;8.518;2022-12-18T01:53:54;102066.97;;;-9.35;87.79
65716;BME280;63484;52.054;8.518;2022-12-18T01:59:00;102051.81;;;-9.32;87.51
65716;BME280;63484;52.054;8.518;2022-12-18T02:04:25;102054.31;;;-9.33;87.31
65716;BME280;63484;52.054;8.518;2022-12-18T02:09:34;102059.09;;;-9.41;87.09
65716;BME280;63484;52.054;8.518;2022-12-18T02:14:58;102058.16;;;-9.43;87.04
65716;BME280;63484;52.054;8.518;2022-12-18T02:30:39;102063.56;;;-9.75;86.49
65716;BME280;63484;52.054;8.518;2022-12-18T02:35:43;102055.88;;;-9.76;87.08
65716;BME280;63484;52.054;8.518;2022-12-18T02:40:46;102037.94;;;-9.79;86.74
65716;BME280;63484;52.054;8.518;2022-12-18T02:45:53;102039.72;;;-9.77;87.04
65716;BME280;63484;52.054;8.518;2022-12-18T02:51:19;102040.00;;;-9.71;87.32
65716;BME280;63484;52.054;8.518;2022-12-18T02:56:29;102040.53;;;-9.78;86.96
65716;BME280;63484;52.054;8.518;2022-12-18T03:07:15;102057.06;;;-9.87;86.81
65716;BME280;63484;52.054;8.518;2022-12-18T03:12:30;102053.34;;;-9.95;86.27
65716;BME280;63484;52.054;8.518;2022-12-18T03:17:36;102051.63;;;-9.95;86.36
65716;BME280;63484;52.054;8.518;2022-12-18T03:22:43;102050.44;;;-10.03;85.86
65716;BME280;63484;52.054;8.518;2022-12-18T03:27:51;102047.75;;;-10.06;85.96
65716;BME280;63484;52.054;8.518;2022-12-18T03:33:02;102053.66;;;-10.07;86.02
65716;BME280;63484;52.054;8.518;2022-12-18T03:38:05;102046.97;;;-10.05;86.41
65716;BME280;63484;52.054;8.518;2022-12-18T03:43:16;102060.38;;;-10.09;85.77
65716;BME280;63484;52.054;8.518;2022-12-18T03:48:31;102068.44;;;-10.18;86.15
65716;BME280;63484;52.054;8.518;2022-12-18T03:53:47;102060.91;;;-10.16;86.52
65716;BME280;63484;52.054;8.518;2022-12-18T03:58:54;102049.75;;;-10.20;86.21
65716;BME280;63484;52.054;8.518;2022-12-18T04:04:00;102040.81;;;-10.29;85.14
65716;BME280;63484;52.054;8.518;2022-12-18T04:09:05;102045.91;;;-10.29;85.89
65716;BME280;63484;52.054;8.518;2022-12-18T04:14:10;102046.72;;;-10.30;85.98
65716;BME280;63484;52.054;8.518;2022-12-18T04:19:12;102053.38;;;-10.32;86.06
65716;BME280;63484;52.054;8.518;2022-12-18T04:24:15;102057.06;;;-10.26;86.55
65716;BME280;63484;52.054;8.518;2022-12-18T04:29:25;102063.84;;;-10.26;85.74
65716;BME280;63484;52.054;8.518;2022-12-18T04:34:26;102054.06;;;-10.36;85.14
65716;BME280;63484;52.054;8.518;2022-12-18T04:39:28;102066.63;;;-10.39;85.13
65716;BME280;63484;52.054;8.518;2022-12-18T04:44:31;102071.91;;;-10.35;85.34
65716;BME280;63484;52.054;8.518;2022-12-18T04:49:32;102067.78;;;-10.33;85.84
65716;BME280;63484;52.054;8.518;2022-12-18T04:54:32;102071.16;;;-10.32;85.71
65716;BME280;63484;52.054;8.518;2022-12-18T04:59:32;102069.25;;;-10.38;85.52
65716;BME280;63484;52.054;8.518;2022-12-18T05:04:33;102062.34;;;-10.40;85.03
65716;BME280;63484;52.054;8.518;2022-12-18T05:09:34;102067.28;;;-10.43;84.85
65716;BME280;63484;52.054;8.518;2022-12-18T05:14:34;102054.56;;;-10.43;84.04
65716;BME280;63484;52.054;8.518;2022-12-18T05:19:35;102044.94;;;-10.50;84.05
65716;BME280;63484;52.054;8.518;2022-12-18T05:24:38;102035.97;;;-10.61;83.67
65716;BME280;63484;52.054;8.518;2022-12-18T05:29:38;102034.22;;;-10.62;84.43
65716;BME280;63484;52.054;8.518;2022-12-18T05:34:38;102045.34;;;-10.60;84.90
65716;BME280;63484;52.054;8.518;2022-12-18T05:39:39;102048.78;;;-10.58;85.11
65716;BME280;63484;52.054;8.518;2022-12-18T05:44:39;102040.19;;;-10.62;85.15
65716;BME280;63484;52.054;8.518;2022-12-18T05:49:39;102036.69;;;-10.64;84.77
65716;BME280;63484;52.054;8.518;2022-12-18T05:54:40;102036.63;;;-10.65;84.85
65716;BME280;63484;52.054;8.518;2022-12-18T05:59:40;102047.69;;;-10.63;85.10
65716;BME280;63484;52.054;8.518;2022-12-18T06:04:40;102041.09;;;-10.60;85.31
65716;BME280;63484;52.054;8.518;2022-12-18T06:09:41;102062.44;;;-10.56;84.57
65716;BME280;63484;52.054;8.518;2022-12-18T06:14:41;102067.88;;;-10.66;84.63
65716;BME280;63484;52.054;8.518;2022-12-18T06:19:41;102059.47;;;-10.65;85.07
65716;BME280;63484;52.054;8.518;2022-12-18T06:24:42;102067.88;;;-10.66;84.80
65716;BME280;63484;52.054;8.518;2022-12-18T06:29:42;102073.69;;;-10.69;83.96
65716;BME280;63484;52.054;8.518;2022-12-18T06:34:43;102078.03;;;-10.66;84.84
65716;BME280;63484;52.054;8.518;2022-12-18T06:39:43;102083.09;;;-10.66;84.92
65716;BME280;63484;52.054;8.518;2022-12-18T06:44:43;102079.94;;;-10.62;85.06
65716;BME280;63484;52.054;8.518;2022-12-18T06:49:44;102072.72;;;-10.53;85.32
65716;BME280;63484;52.054;8.518;2022-12-18T06:54:44;102089.22;;;-10.63;84.90
65716;BME280;63484;52.054;8.518;2022-12-18T06:59:44;102091.75;;;-10.63;84.89
65716;BME280;63484;52.054;8.518;2022-12-18T07:04:45;102094.22;;;-10.64;84.60
65716;BME280;63484;52.054;8.518;2022-12-18T07:09:45;102097.56;;;-10.65;84.49
65716;BME280;63484;52.054;8.518;2022-12-18T07:14:45;102102.84;;;-10.61;85.01
65716;BME280;63484;52.054;8.518;2022-12-18T07:19:46;102092.91;;;-10.56;84.93
65716;BME280;63484;52.054;8.518;2022-12-18T07:24:46;102095.44;;;-10.56;84.47
65716;BME280;63484;52.054;8.518;2022-12-18T07:29:46;102086.94;;;-10.57;84.35
65716;BME280;63484;52.054;8.518;2022-12-18T07:34:47;102087.97;;;-10.53;84.39
65716;BME280;63484;52.054;8.518;2022-12-18T07:39:47;102083.53;;;-10.40;84.61
65716;BME280;63484;52.054;8.518;2022-12-18T07:44:47;102087.34;;;-10.30;84.51
65716;BME280;63484;52.054;8.518;2022-12-18T07:49:48;102094.41;;;-10.25;84.40
65716;BME280;63484;52.054;8.518;2022-12-18T07:54:48;102084.44;;;-10.20;83.70
65716;BME280;63484;52.054;8.518;2022-12-18T07:59:50;102092.59;;;-10.08;83.28
65716;BME280;63484;52.054;8.518;2022-12-18T08:04:50;102087.22;;;-9.95;82.50
65716;BME280;63484;52.054;8.518;2022-12-18T08:09:50;102076.28;;;-9.94;82.99
65716;BME280;63484;52.054;8.518;2022-12-18T08:14:51;102082.16;;;-9.57;83.73
65716;BME280;63484;52.054;8.518;2022-12-18T08:19:51;102080.69;;;-9.11;82.50
65716;BME280;63484;52.054;8.518;2022-12-18T08:24:51;102058.72;;;-8.23;80.40
65716;BME280;63484;52.054;8.518;2022-12-18T08:29:52;102056.09;;;-7.29;77.44
65716;BME280;63484;52.054;8.518;2022-12-18T08:34:52;102038.66;;;-6.62;73.74
65716;BME280;63484;52.054;8.518;2022-12-18T08:39:52;102049.91;;;-6.29;73.36
65716;BME280;63484;52.054;8.518;2022-12-18T08:44:53;102046.22;;;-6.39;76.18
65716;BME280;63484;52.054;8.518;2022-12-18T08:49:53;102044.97;;;-6.51;77.79
65716;BME280;63484;52.054;8.518;2022-12-18T08:54:53;102051.59;;;-6.58;80.61
65716;BME280;63484;52.054;8.518;2022-12-18T08:59:54;102046.22;;;-6.39;81.26
65716;BME280;63484;52.054;8.518;2022-12-18T09:04:54;102038.91;;;-6.27;82.48
65716;BME280;63484;52.054;8.518;2022-12-18T09:09:54;102042.63;;;-5.86;82.98
65716;BME280;63484;52.054;8.518;2022-12-18T09:14:55;102044.06;;;-5.64;82.24
65716;BME280;63484;52.054;8.518;2022-12-18T09:19:56;102042.88;;;-5.44;82.08
65716;BME280;63484;52.054;8.518;2022-12-18T09:24:56;102047.13;;;-5.12;82.36
65716;BME280;63484;52.054;8.518;2022-12-18T09:29:57;102047.06;;;-4.80;81.33
65716;BME280;63484;52.054;8.518;2022-12-18T09:34:57;102039.06;;;-4.56;80.92
65716;BME280;63484;52.054;8.518;2022-12-18T09:39:57;102037.00;;;-4.34;80.40
65716;BME280;63484;52.054;8.518;2022-12-18T09:44:58;102039.66;;;-4.29;80.20
65716;BME280;63484;52.054;8.518;2022-12-18T09:50:03;102041.59;;;-4.19;80.70
65716;BME280;63484;52.054;8.518;2022-12-18T10:00:19;102030.22;;;-3.90;80.84
65716;BME280;63484;52.054;8.518;2022-12-18T10:05:54;102033.84;;;-3.80;81.22
65716;BME280;63484;52.054;8.518;2022-12-18T10:11:10;102038.59;;;-3.57;80.58
65716;BME280;63484;52.054;8.518;2022-12-18T10:16:32;102039.66;;;-3.44;80.76
65716;BME280;63484;52.054;8.518;2022-12-18T10:21:45;102013.63;;;-3.16;81.01
65716;BME280;63484;52.054;8.518;2022-12-18T10:26:49;101977.22;;;-2.85;80.32
65716;BME280;63484;52.054;8.518;2022-12-18T10:31:49;101964.56;;;-2.71;80.78
65716;BME280;63484;52.054;8.518;2022-12-18T10:36:50;101955.50;;;-2.45;80.21
65716;BME280;63484;52.054;8.518;2022-12-18T10:41:50;101941.25;;;-2.18;79.43
65716;BME280;63484;52.054;8.518;2022-12-18T10:47:02;101944.19;;;-1.83;79.13
65716;BME280;63484;52.054;8.518;2022-12-18T10:52:24;101943.56;;;-1.61;78.57
65716;BME280;63484;52.054;8.518;2022-12-18T11:02:29;101922.41;;;-1.19;75.89
65716;BME280;63484;52.054;8.518;2022-12-18T11:07:49;101904.47;;;-1.04;74.96
65716;BME280;63484;52.054;8.518;2022-12-18T11:12:50;101901.09;;;-0.96;73.61
65716;BME280;63484;52.054;8.518;2022-12-18T11:17:52;101887.41;;;-0.83;72.28
65716;BME280;63484;52.054;8.518;2022-12-18T11:23:10;101875.31;;;-0.85;72.45
65716;BME280;63484;52.054;8.518;2022-12-18T11:33:38;101872.00;;;-0.62;71.56
65716;BME280;63484;52.054;8.518;2022-12-18T11:38:42;101860.00;;;-0.55;70.33
65716;BME280;63484;52.054;8.518;2022-12-18T11:43:50;101864.31;;;-0.47;70.45
65716;BME280;63484;52.054;8.518;2022-12-18T11:49:07;101847.97;;;-0.46;70.47
65716;BME280;63484;52.054;8.518;2022-12-18T11:54:13;101837.63;;;-0.49;70.41
65716;BME280;63484;52.054;8.518;2022-12-18T12:04:56;101834.19;;;-0.39;68.55
65716;BME280;63484;52.054;8.518;2022-12-18T12:20:56;101804.94;;;-0.32;69.22
65716;BME280;63484;52.054;8.518;2022-12-18T12:26:07;101797.19;;;-0.41;69.37
65716;BME280;63484;52.054;8.518;2022-12-18T12:31:34;101790.28;;;-0.42;68.77
65716;BME280;63484;52.054;8.518;2022-12-18T12:42:05;101791.19;;;-0.28;67.77
65716;BME280;63484;52.054;8.518;2022-12-18T12:47:30;101803.25;;;-0.30;67.88
65716;BME280;63484;52.054;8.518;2022-12-18T12:52:36;101798.94;;;-0.25;68.14
65716;BME280;63484;52.054;8.518;2022-12-18T12:57:42;101794.63;;;-0.26;67.86
65716;BME280;63484;52.054;8.518;2022-12-18T13:03:11;101790.34;;;-0.34;68.75
65716;BME280;63484;52.054;8.518;2022-12-18T13:08:26;101766.22;;;-0.33;67.95
65716;BME280;63484;52.054;8.518;2022-12-18T13:13:50;101749.84;;;-0.43;69.09
65716;BME280;63484;52.054;8.518;2022-12-18T13:18:52;101753.31;;;-0.41;68.36
65716;BME280;63484;52.054;8.518;2022-12-18T13:23:55;101736.09;;;-0.25;67.29
65716;BME280;63484;52.054;8.518;2022-12-18T13:28:57;101726.63;;;-0.25;68.21
65716;BME280;63484;52.054;8.518;2022-12-18T13:34:23;101718.00;;;-0.24;67.26
65716;BME280;63484;52.054;8.518;2022-12-18T13:39:31;101709.38;;;-0.32;67.75
65716;BME280;63484;52.054;8.518;2022-12-18T13:44:36;101704.22;;;-0.36;67.98
65716;BME280;63484;52.054;8.518;2022-12-18T13:49:43;101715.41;;;-0.30;67.45
65716;BME280;63484;52.054;8.518;2022-12-18T13:54:49;101710.25;;;-0.33;67.02
65716;BME280;63484;52.054;8.518;2022-12-18T13:59:51;101698.19;;;-0.31;67.25
65716;BME280;63484;52.054;8.518;2022-12-18T14:04:52;101699.06;;;-0.33;66.79
65716;BME280;63484;52.054;8.518;2022-12-18T14:09:55;101690.44;;;-0.32;67.42
65716;BME280;63484;52.054;8.518;2022-12-18T14:14:57;101702.47;;;-0.36;67.86
65716;BME280;63484;52.054;8.518;2022-12-18T14:19:59;101699.94;;;-0.33;67.23
65716;BME280;63484;52.054;8.518;2022-12-18T14:25:45;101690.44;;;-0.37;67.37
65716;BME280;63484;52.054;8.518;2022-12-18T14:30:41;101701.66;;;-0.39;67.29
65716;BME280;63484;52.054;8.518;2022-12-18T14:35:52;101687.88;;;-0.28;66.55
65716;BME280;63484;52.054;8.518;2022-12-18T14:40:55;101693.91;;;-0.39;67.01
65716;BME280;63484;52.054;8.518;2022-12-18T14:45:56;101675.81;;;-0.36;66.87
65716;BME280;63484;52.054;8.518;2022-12-18T14:51:00;101680.13;;;-0.43;66.86
65716;BME280;63484;52.054;8.518;2022-12-18T14:56:03;101670.63;;;-0.47;67.12
65716;BME280;63484;52.054;8.518;2022-12-18T15:01:18;101673.22;;;-0.48;67.15
65716;BME280;63484;52.054;8.518;2022-12-18T15:11:35;101667.22;;;-0.43;66.64
65716;BME280;63484;52.054;8.518;2022-12-18T15:16:36;101662.06;;;-0.46;67.08
65716;BME280;63484;52.054;8.518;2022-12-18T15:21:42;101667.22;;;-0.43;66.53
65716;BME280;63484;52.054;8.518;2022-12-18T15:26:43;101650.84;;;-0.46;66.28
65716;BME280;63484;52.054;8.518;2022-12-18T15:31:44;101646.56;;;-0.43;65.82
65716;BME280;63484;52.054;8.518;2022-12-18T15:36:58;101624.16;;;-0.38;65.61
65716;BME280;63484;52.054;8.518;2022-12-18T15:42:00;101622.44;;;-0.39;65.84
65716;BME280;63484;52.054;8.518;2022-12-18T15:47:23;101614.69;;;-0.39;65.85
65716;BME280;63484;52.054;8.518;2022-12-18T15:52:24;101600.03;;;-0.31;65.18
65716;BME280;63484;52.054;8.518;2022-12-18T15:57:25;101594.03;;;-0.42;66.03
65716;BME280;63484;52.054;8.518;2022-12-18T16:02:26;101600.09;;;-0.46;65.76
65716;BME280;63484;52.054;8.518;2022-12-18T16:07:28;101615.56;;;-0.37;65.00
65716;BME280;63484;52.054;8.518;2022-12-18T16:12:28;101604.34;;;-0.36;65.47
65716;BME280;63484;52.054;8.518;2022-12-18T16:17:29;101569.06;;;-0.37;65.99
65716;BME280;63484;52.054;8.518;2022-12-18T16:22:30;101567.34;;;-0.35;65.75
65716;BME280;63484;52.054;8.518;2022-12-18T16:27:31;101563.91;;;-0.35;65.46
65716;BME280;63484;52.054;8.518;2022-12-18T16:32:31;101551.84;;;-0.35;65.66
65716;BME280;63484;52.054;8.518;2022-12-18T16:37:31;101544.97;;;-0.33;65.67
65716;BME280;63484;52.054;8.518;2022-12-18T16:42:32;101551.81;;;-0.17;65.02
65716;BME280;63484;52.054;8.518;2022-12-18T16:47:33;101551.81;;;-0.26;65.46
65716;BME280;63484;52.054;8.518;2022-12-18T16:52:34;101543.25;;;-0.28;65.35
65716;BME280;63484;52.054;8.518;2022-12-18T16:57:35;101519.94;;;-0.16;65.16
65716;BME280;63484;52.054;8.518;2022-12-18T17:02:35;101515.63;;;-0.23;65.06
65716;BME280;63484;52.054;8.518;2022-12-18T17:07:36;101502.69;;;-0.09;64.54
65716;BME280;63484;52.054;8.518;2022-12-18T17:12:36;101510.44;;;-0.11;64.28
65716;BME280;63484;52.054;8.518;2022-12-18T17:17:36;101513.00;;;-0.08;63.86
65716;BME280;63484;52.054;8.518;2022-12-18T17:22:37;101491.47;;;-0.01;63.84
65716;BME280;63484;52.054;8.518;2022-12-18T17:27:38;101485.28;;;0.23;62.56
65716;BME280;63484;52.054;8.518;2022-12-18T17:32:38;101491.41;;;0.10;63.35
65716;BME280;63484;52.054;8.518;2022-12-18T17:37:38;101477.59;;;0.16;62.56
65716;BME280;63484;52.054;8.518;2022-12-18T17:42:39;101477.56;;;0.22;62.17
65716;BME280;63484;52.054;8.518;2022-12-18T17:47:39;101468.88;;;0.32;61.23
65716;BME280;63484;52.054;8.518;2022-12-18T17:52:40;101459.41;;;0.28;61.31
65716;BME280;63484;52.054;8.518;2022-12-18T17:57:41;101457.69;;;0.30;60.99
65716;BME280;63484;52.054;8.518;2022-12-18T18:02:41;101466.25;;;0.38;60.43
65716;BME280;63484;52.054;8.518;2022-12-18T18:07:41;101455.91;;;0.38;60.27
65716;BME280;63484;52.054;8.518;2022-12-18T18:12:42;101447.13;;;0.60;59.22
65716;BME280;63484;52.054;8.518;2022-12-18T18:18:01;101442.78;;;0.62;58.92
65716;BME280;63484;52.054;8.518;2022-12-18T18:23:01;101464.31;;;0.67;58.67
65716;BME280;63484;52.054;8.518;2022-12-18T18:28:02;101461.78;;;0.61;59.25
65716;BME280;63484;52.054;8.518;2022-12-18T18:33:02;101457.50;;;0.60;58.96
65716;BME280;63484;52.054;8.518;2022-12-18T18:38:03;101451.38;;;0.67;57.78
65716;BME280;63484;52.054;8.518;2022-12-18T18:43:03;101459.09;;;0.76;58.12
65716;BME280;63484;52.054;8.518;2022-12-18T18:48:04;101449.59;;;0.75;57.63
65716;BME280;63484;52.054;8.518;2022-12-18T18:53:04;101459.09;;;0.74;58.60
65716;BME280;63484;52.054;8.518;2022-12-18T18:58:05;101447.81;;;0.81;58.77
65716;BME280;63484;52.054;8.518;2022-12-18T19:03:05;101468.53;;;0.80;59.47
65716;BME280;63484;52.054;8.518;2022-12-18T19:08:06;101445.13;;;0.92;59.42
65716;BME280;63484;52.054;8.518;2022-12-18T19:13:13;101449.59;;;0.75;60.96
65716;BME280;63484;52.054;8.518;2022-12-18T19:18:25;101456.53;;;0.70;61.44
65716;BME280;63484;52.054;8.518;2022-12-18T19:23:28;101454.81;;;0.69;62.29
65716;BME280;63484;52.054;8.518;2022-12-18T19:28:29;101463.41;;;0.74;62.82
65716;BME280;63484;52.054;8.518;2022-12-18T19:33:35;101478.94;;;0.71;63.17
65716;BME280;63484;52.054;8.518;2022-12-18T19:38:36;101473.06;;;0.49;64.24
65716;BME280;63484;52.054;8.518;2022-12-18T19:43:38;101467.91;;;0.46;65.38
65716;BME280;63484;52.054;8.518;2022-12-18T19:48:38;101475.69;;;0.45;65.95
65716;BME280;63484;52.054;8.518;2022-12-18T19:53:39;101467.97;;;0.34;66.63
65716;BME280;63484;52.054;8.518;2022-12-18T19:58:40;101481.75;;;0.39;66.84
65716;BME280;63484;52.054;8.518;2022-12-18T20:03:40;101477.44;;;0.40;66.82
65716;BME280;63484;52.054;8.518;2022-12-18T20:08:41;101467.16;;;0.28;67.43
65716;BME280;63484;52.054;8.518;2022-12-18T20:13:41;101459.41;;;0.26;67.25
65716;BME280;63484;52.054;8.518;2022-12-18T20:18:42;101470.63;;;0.28;67.68
65716;BME280;63484;52.054;8.518;2022-12-18T20:23:42;101462.09;;;0.16;67.87
65716;BME280;63484;52.054;8.518;2022-12-18T20:28:42;101466.41;;;0.14;68.45
65716;BME280;63484;52.054;8.518;2022-12-18T20:33:43;101460.34;;;0.13;68.29
65716;BME280;63484;52.054;8.518;2022-12-18T20:38:43;101463.81;;;0.14;68.34
65716;BME280;63484;52.054;8.518;2022-12-18T20:43:44;101463.84;;;0.08;68.80
65716;BME280;63484;52.054;8.518;2022-12-18T20:48:46;101456.09;;;0.09;68.88
65716;BME280;63484;52.054;8.518;2022-12-18T20:53:47;101456.94;;;0.07;69.13
65716;BME280;63484;52.054;8.518;2022-12-18T20:58:49;101453.53;;;0.08;68.94
65716;BME280;63484;52.054;8.518;2022-12-18T21:03:49;101447.50;;;0.06;69.10
65716;BME280;63484;52.054;8.518;2022-12-18T21:08:50;101450.97;;;0.05;69.18
65716;BME280;63484;52.054;8.518;2022-12-18T21:13:50;101447.50;;;0.06;69.67
65716;BME280;63484;52.054;8.518;2022-12-18T21:18:51;101434.59;;;0.03;69.83
65716;BME280;63484;52.054;8.518;2022-12-18T21:23:51;101438.00;;;0.11;69.56
65716;BME280;63484;52.054;8.518;2022-12-18T21:28:56;101431.13;;;0.10;69.71
65716;BME280;63484;52.054;8.518;2022-12-18T21:33:57;101430.28;;;0.06;70.08
65716;BME280;63484;52.054;8.518;2022-12-18T21:38:58;101439.69;;;0.12;70.46
65716;BME280;63484;52.054;8.518;2022-12-18T21:43:58;101431.09;;;0.13;70.46
65716;BME280;63484;52.054;8.518;2022-12-18T21:49:06;101434.50;;;0.19;70.21
65716;BME280;63484;52.054;8.518;2022-12-18T21:54:06;101427.59;;;0.23;70.35
65716;BME280;63484;52.054;8.518;2022-12-18T21:59:07;101422.41;;;0.26;70.08
65716;BME280;63484;52.054;8.518;2022-12-18T22:04:07;101419.75;;;0.32;69.74
65716;BME280;63484;52.054;8.518;2022-12-18T22:09:10;101415.41;;;0.37;69.60
65716;BME280;63484;52.054;8.518;2022-12-18T22:14:11;101413.72;;;0.36;69.79
65716;BME280;63484;52.054;8.518;2022-12-18T22:19:12;101410.13;;;0.52;69.20
65716;BME280;63484;52.054;8.518;2022-12-18T22:24:15;101409.25;;;0.51;68.73
65716;BME280;63484;52.054;8.518;2022-12-18T22:29:18;101406.69;;;0.50;69.55
65716;BME280;63484;52.054;8.518;2022-12-18T22:34:37;101400.63;;;0.54;68.84
65716;BME280;63484;52.054;8.518;2022-12-18T22:39:38;101392.84;;;0.58;69.03
65716;BME280;63484;52.054;8.518;2022-12-18T22:44:39;101387.66;;;0.60;69.20
65716;BME280;63484;52.054;8.518;2022-12-18T22:49:39;101377.28;;;0.63;69.16
65716;BME280;63484;52.054;8.518;2022-12-18T22:54:40;101371.13;;;0.74;69.48
65716;BME280;63484;52.054;8.518;2022-12-18T22:59:40;101376.28;;;0.77;70.02
65716;BME280;63484;52.054;8.518;2022-12-18T23:04:40;101371.13;;;0.74;71.42
65716;BME280;63484;52.054;8.518;2022-12-18T23:09:41;101365.06;;;0.77;71.85
65716;BME280;63484;52.054;8.518;2022-12-18T23:14:41;101373.72;;;0.76;73.42
65716;BME280;63484;52.054;8.518;2022-12-18T23:19:42;101362.44;;;0.80;73.73
65716;BME280;63484;52.054;8.518;2022-12-18T23:24:42;101363.19;;;0.89;73.42
65716;BME280;63484;52.054;8.518;2022-12-18T23:29:43;101360.66;;;0.86;74.98
65716;BME280;63484;52.054;8.518;2022-12-18T23:34:44;101359.81;;;0.86;76.27
65716;BME280;63484;52.054;8.518;2022-12-18T23:39:44;101349.47;;;0.86;76.74
65716;BME280;63484;52.054;8.518;2022-12-18T23:44:45;101350.25;;;0.89;77.18
65716;BME280;63484;52.054;8.518;2022-12-18T23:49:45;101341.69;;;0.86;78.28
65716;BME280;63484;52.054;8.518;2022-12-18T23:54:46;101328.75;;;0.83;79.25
65716;BME280;63484;52.054;8.518;2022-12-18T23:59:46;101315.00;;;0.82;80.35
